sensor_id;sensor_type;location;lat;lon;timestamp;P1;durP1;ratioP1;P2;durP2;ratioP2
23362;SDS011;11853;48.080;11.960;2023-05-10T00:01:46;1.33;;;1.13;;
23362;SDS011;11853;48.080;11.960;2023-05-10T00:04:11;0.98;;;0.88;;
23362;SDS011;11853;48.080;11.960;2023-05-10T00:06:37;1.13;;;0.93;;
23362;SDS011;11853;48.080;11.960;2023-05-10T00:09:02;1.58;;;1.00;;
23362;SDS011;11853;48.080;11.960;2023-05-10T00:11:28;0.60;;;0.60;;
23362;SDS011;11853;48.080;11.960;2023-05-10T00:13:54;0.98;;;0.82;;
23362;SDS011;11853;48.080;11.960;2023-05-10T00:16:20;1.10;;;1.00;;
23362;SDS011;11853;48.080;11.960;2023-05-10T00:18:45;0.80;;;0.80;;
23362;SDS011;11853;48.080;11.960;2023-05-10T00:21:11;0.70;;;0.70;;
23362;SDS011;11853;48.080;11.960;2023-05-10T00:23:36;1.13;;;0.70;;
23362;SDS011;11853;48.080;11.960;2023-05-10T00:26:02;0.73;;;0.50;;
23362;SDS011;11853;48.080;11.960;2023-05-10T00:28:28;0.63;;;0.63;;
23362;SDS011;11853;48.080;11.960;2023-05-10T00:30:54;1.10;;;0.70;;
23362;SDS011;11853;48.080;11.960;2023-05-10T00:33:20;0.70;;;0.70;;
23362;SDS011;11853;48.080;11.960;2023-05-10T00:35:46;0.85;;;0.85;;
23362;SDS011;11853;48.080;11.960;2023-05-10T00:38:12;1.00;;;1.00;;
23362;SDS011;11853;48.080;11.960;2023-05-10T00:40:37;0.70;;;0.70;;
23362;SDS011;11853;48.080;11.960;2023-05-10T00:43:03;0.57;;;0.57;;
23362;SDS011;11853;48.080;11.960;2023-05-10T00:45:30;0.73;;;0.73;;
23362;SDS011;11853;48.080;11.960;2023-05-10T00:47:56;0.80;;;0.80;;
23362;SDS011;11853;48.080;11.960;2023-05-10T00:50:23;1.48;;;0.65;;
23362;SDS011;11853;48.080;11.960;2023-05-10T00:52:48;1.27;;;0.98;;
23362;SDS011;11853;48.080;11.960;2023-05-10T00:55:14;1.35;;;0.98;;
23362;SDS011;11853;48.080;11.960;2023-05-10T00:57:40;1.60;;;0.63;;
23362;SDS011;11853;48.080;11.960;2023-05-10T01:00:06;2.00;;;0.70;;
23362;SDS011;11853;48.080;11.960;2023-05-10T01:02:33;0.63;;;0.63;;
23362;SDS011;11853;48.080;11.960;2023-05-10T01:04:59;1.38;;;0.52;;
23362;SDS011;11853;48.080;11.960;2023-05-10T01:07:26;1.00;;;0.68;;
23362;SDS011;11853;48.080;11.960;2023-05-10T01:09:52;1.15;;;0.85;;
23362;SDS011;11853;48.080;11.960;2023-05-10T01:12:18;0.80;;;0.68;;
23362;SDS011;11853;48.080;11.960;2023-05-10T01:14:43;2.15;;;0.73;;
23362;SDS011;11853;48.080;11.960;2023-05-10T01:17:09;1.08;;;0.60;;
23362;SDS011;11853;48.080;11.960;2023-05-10T01:19:37;1.83;;;0.70;;
23362;SDS011;11853;48.080;11.960;2023-05-10T01:24:59;1.30;;;0.70;;
23362;SDS011;11853;48.080;11.960;2023-05-10T01:28:00;1.73;;;0.88;;
23362;SDS011;11853;48.080;11.960;2023-05-10T01:31:03;1.73;;;0.70;;
23362;SDS011;11853;48.080;11.960;2023-05-10T01:36:30;0.77;;;0.77;;
23362;SDS011;11853;48.080;11.960;2023-05-10T01:38:59;1.10;;;0.90;;
23362;SDS011;11853;48.080;11.960;2023-05-10T01:44:35;0.50;;;0.50;;
23362;SDS011;11853;48.080;11.960;2023-05-10T01:47:12;0.60;;;0.60;;
23362;SDS011;11853;48.080;11.960;2023-05-10T01:49:45;0.93;;;0.70;;
23362;SDS011;11853;48.080;11.960;2023-05-10T01:52:15;1.58;;;0.80;;
23362;SDS011;11853;48.080;11.960;2023-05-10T01:55:00;0.80;;;0.68;;
23362;SDS011;11853;48.080;11.960;2023-05-10T01:57:32;1.30;;;0.75;;
23362;SDS011;11853;48.080;11.960;2023-05-10T02:00:00;0.95;;;0.60;;
23362;SDS011;11853;48.080;11.960;2023-05-10T02:02:28;0.80;;;0.70;;
23362;SDS011;11853;48.080;11.960;2023-05-10T02:04:58;1.25;;;0.50;;
23362;SDS011;11853;48.080;11.960;2023-05-10T02:07:24;0.40;;;0.40;;
23362;SDS011;11853;48.080;11.960;2023-05-10T02:09:53;0.57;;;0.57;;
23362;SDS011;11853;48.080;11.960;2023-05-10T02:12:20;0.30;;;0.30;;
23362;SDS011;11853;48.080;11.960;2023-05-10T02:14:48;1.08;;;0.40;;
23362;SDS011;11853;48.080;11.960;2023-05-10T02:17:16;0.70;;;0.50;;
23362;SDS011;11853;48.080;11.960;2023-05-10T02:19:43;0.75;;;0.60;;
23362;SDS011;11853;48.080;11.960;2023-05-10T02:22:10;1.02;;;0.60;;
23362;SDS011;11853;48.080;11.960;2023-05-10T02:24:37;0.50;;;0.50;;
23362;SDS011;11853;48.080;11.960;2023-05-10T02:27:04;0.50;;;0.50;;
23362;SDS011;11853;48.080;11.960;2023-05-10T02:29:32;0.45;;;0.40;;
23362;SDS011;11853;48.080;11.960;2023-05-10T02:31:59;0.88;;;0.60;;
23362;SDS011;11853;48.080;11.960;2023-05-10T02:34:26;0.47;;;0.47;;
23362;SDS011;11853;48.080;11.960;2023-05-10T02:36:53;1.55;;;0.60;;
23362;SDS011;11853;48.080;11.960;2023-05-10T02:39:21;1.10;;;0.65;;
23362;SDS011;11853;48.080;11.960;2023-05-10T02:41:48;0.50;;;0.32;;
23362;SDS011;11853;48.080;11.960;2023-05-10T02:44:15;0.60;;;0.60;;
23362;SDS011;11853;48.080;11.960;2023-05-10T02:46:43;1.38;;;0.75;;
23362;SDS011;11853;48.080;11.960;2023-05-10T02:49:10;0.50;;;0.50;;
23362;SDS011;11853;48.080;11.960;2023-05-10T02:51:36;0.50;;;0.50;;
23362;SDS011;11853;48.080;11.960;2023-05-10T02:54:12;1.05;;;0.55;;
23362;SDS011;11853;48.080;11.960;2023-05-10T02:56:46;0.57;;;0.57;;
23362;SDS011;11853;48.080;11.960;2023-05-10T02:59:15;1.48;;;0.60;;
23362;SDS011;11853;48.080;11.960;2023-05-10T03:01:41;0.40;;;0.40;;
23362;SDS011;11853;48.080;11.960;2023-05-10T03:04:07;0.90;;;0.50;;
23362;SDS011;11853;48.080;11.960;2023-05-10T03:06:32;0.50;;;0.50;;
23362;SDS011;11853;48.080;11.960;2023-05-10T03:08:58;0.60;;;0.60;;
23362;SDS011;11853;48.080;11.960;2023-05-10T03:11:47;0.52;;;0.52;;
23362;SDS011;11853;48.080;11.960;2023-05-10T03:14:32;0.50;;;0.50;;
23362;SDS011;11853;48.080;11.960;2023-05-10T03:17:11;0.60;;;0.50;;
23362;SDS011;11853;48.080;11.960;2023-05-10T03:22:40;0.90;;;0.60;;
23362;SDS011;11853;48.080;11.960;2023-05-10T03:25:12;0.80;;;0.40;;
23362;SDS011;11853;48.080;11.960;2023-05-10T03:27:41;1.20;;;0.60;;
23362;SDS011;11853;48.080;11.960;2023-05-10T03:30:12;0.60;;;0.40;;
23362;SDS011;11853;48.080;11.960;2023-05-10T03:32:38;0.50;;;0.50;;
23362;SDS011;11853;48.080;11.960;2023-05-10T03:35:10;0.57;;;0.57;;
23362;SDS011;11853;48.080;11.960;2023-05-10T03:37:37;0.40;;;0.40;;
23362;SDS011;11853;48.080;11.960;2023-05-10T03:40:03;0.40;;;0.40;;
23362;SDS011;11853;48.080;11.960;2023-05-10T03:42:30;1.65;;;0.30;;
23362;SDS011;11853;48.080;11.960;2023-05-10T03:44:55;1.00;;;0.30;;
23362;SDS011;11853;48.080;11.960;2023-05-10T03:47:21;0.30;;;0.30;;
23362;SDS011;11853;48.080;11.960;2023-05-10T03:49:47;0.65;;;0.40;;
23362;SDS011;11853;48.080;11.960;2023-05-10T03:52:12;0.38;;;0.38;;
23362;SDS011;11853;48.080;11.960;2023-05-10T03:54:38;0.57;;;0.45;;
23362;SDS011;11853;48.080;11.960;2023-05-10T04:00:25;0.35;;;0.30;;
23362;SDS011;11853;48.080;11.960;2023-05-10T04:02:51;0.93;;;0.70;;
23362;SDS011;11853;48.080;11.960;2023-05-10T04:05:16;0.50;;;0.50;;
23362;SDS011;11853;48.080;11.960;2023-05-10T04:07:42;0.73;;;0.73;;
23362;SDS011;11853;48.080;11.960;2023-05-10T04:10:09;0.63;;;0.40;;
23362;SDS011;11853;48.080;11.960;2023-05-10T04:12:35;1.42;;;0.50;;
23362;SDS011;11853;48.080;11.960;2023-05-10T04:15:01;0.43;;;0.43;;
23362;SDS011;11853;48.080;11.960;2023-05-10T04:17:26;0.50;;;0.50;;
23362;SDS011;11853;48.080;11.960;2023-05-10T04:19:52;0.50;;;0.50;;
23362;SDS011;11853;48.080;11.960;2023-05-10T04:22:19;0.30;;;0.30;;
23362;SDS011;11853;48.080;11.960;2023-05-10T04:24:45;0.60;;;0.40;;
23362;SDS011;11853;48.080;11.960;2023-05-10T04:27:11;0.57;;;0.25;;
23362;SDS011;11853;48.080;11.960;2023-05-10T04:29:37;0.73;;;0.68;;
23362;SDS011;11853;48.080;11.960;2023-05-10T04:32:03;0.63;;;0.40;;
23362;SDS011;11853;48.080;11.960;2023-05-10T04:34:29;1.13;;;0.40;;
23362;SDS011;11853;48.080;11.960;2023-05-10T04:36:55;0.40;;;0.30;;
23362;SDS011;11853;48.080;11.960;2023-05-10T04:39:20;0.28;;;0.28;;
23362;SDS011;11853;48.080;11.960;2023-05-10T04:41:46;1.08;;;0.45;;
23362;SDS011;11853;48.080;11.960;2023-05-10T04:44:12;1.80;;;0.47;;
23362;SDS011;11853;48.080;11.960;2023-05-10T04:46:37;0.52;;;0.40;;
23362;SDS011;11853;48.080;11.960;2023-05-10T04:49:03;1.17;;;0.30;;
23362;SDS011;11853;48.080;11.960;2023-05-10T04:51:29;1.38;;;0.40;;
23362;SDS011;11853;48.080;11.960;2023-05-10T04:53:55;0.32;;;0.32;;
23362;SDS011;11853;48.080;11.960;2023-05-10T04:56:21;0.30;;;0.30;;
23362;SDS011;11853;48.080;11.960;2023-05-10T04:58:47;1.20;;;0.35;;
23362;SDS011;11853;48.080;11.960;2023-05-10T05:01:13;0.30;;;0.30;;
23362;SDS011;11853;48.080;11.960;2023-05-10T05:03:39;0.50;;;0.30;;
23362;SDS011;11853;48.080;11.960;2023-05-10T05:06:04;0.57;;;0.47;;
23362;SDS011;11853;48.080;11.960;2023-05-10T05:08:30;0.30;;;0.30;;
23362;SDS011;11853;48.080;11.960;2023-05-10T05:10:56;0.52;;;0.40;;
23362;SDS011;11853;48.080;11.960;2023-05-10T05:13:22;0.32;;;0.32;;
23362;SDS011;11853;48.080;11.960;2023-05-10T05:15:47;0.35;;;0.35;;
23362;SDS011;11853;48.080;11.960;2023-05-10T05:18:13;0.80;;;0.30;;
23362;SDS011;11853;48.080;11.960;2023-05-10T05:20:39;0.32;;;0.32;;
23362;SDS011;11853;48.080;11.960;2023-05-10T05:23:04;1.55;;;0.70;;
23362;SDS011;11853;48.080;11.960;2023-05-10T05:25:30;0.40;;;0.40;;
23362;SDS011;11853;48.080;11.960;2023-05-10T05:27:56;0.65;;;0.40;;
23362;SDS011;11853;48.080;11.960;2023-05-10T05:30:22;0.50;;;0.50;;
23362;SDS011;11853;48.080;11.960;2023-05-10T05:32:48;0.32;;;0.30;;
23362;SDS011;11853;48.080;11.960;2023-05-10T05:35:13;0.88;;;0.28;;
23362;SDS011;11853;48.080;11.960;2023-05-10T05:37:39;2.20;;;0.40;;
23362;SDS011;11853;48.080;11.960;2023-05-10T05:40:06;1.83;;;0.43;;
23362;SDS011;11853;48.080;11.960;2023-05-10T05:42:32;0.20;;;0.20;;
23362;SDS011;11853;48.080;11.960;2023-05-10T05:44:58;1.20;;;0.40;;
23362;SDS011;11853;48.080;11.960;2023-05-10T05:47:24;3.78;;;1.20;;
23362;SDS011;11853;48.080;11.960;2023-05-10T05:49:50;1.55;;;0.57;;
23362;SDS011;11853;48.080;11.960;2023-05-10T05:52:15;0.40;;;0.40;;
23362;SDS011;11853;48.080;11.960;2023-05-10T05:54:41;1.77;;;0.43;;
23362;SDS011;11853;48.080;11.960;2023-05-10T05:57:07;0.28;;;0.28;;
23362;SDS011;11853;48.080;11.960;2023-05-10T05:59:33;0.13;;;0.13;;
23362;SDS011;11853;48.080;11.960;2023-05-10T06:01:58;0.30;;;0.30;;
23362;SDS011;11853;48.080;11.960;2023-05-10T06:04:25;0.25;;;0.20;;
23362;SDS011;11853;48.080;11.960;2023-05-10T06:06:51;1.10;;;0.57;;
23362;SDS011;11853;48.080;11.960;2023-05-10T06:09:17;1.70;;;0.57;;
23362;SDS011;11853;48.080;11.960;2023-05-10T06:11:42;1.88;;;0.40;;
23362;SDS011;11853;48.080;11.960;2023-05-10T06:14:08;3.55;;;0.60;;
23362;SDS011;11853;48.080;11.960;2023-05-10T06:16:34;0.63;;;0.47;;
23362;SDS011;11853;48.080;11.960;2023-05-10T06:19:00;0.55;;;0.40;;
23362;SDS011;11853;48.080;11.960;2023-05-10T06:21:26;1.35;;;0.50;;
23362;SDS011;11853;48.080;11.960;2023-05-10T06:23:54;0.98;;;0.40;;
23362;SDS011;11853;48.080;11.960;2023-05-10T06:26:20;1.38;;;0.55;;
23362;SDS011;11853;48.080;11.960;2023-05-10T06:28:46;2.05;;;0.60;;
23362;SDS011;11853;48.080;11.960;2023-05-10T06:31:11;1.50;;;0.80;;
23362;SDS011;11853;48.080;11.960;2023-05-10T06:33:37;1.48;;;0.68;;
23362;SDS011;11853;48.080;11.960;2023-05-10T06:36:03;1.15;;;0.90;;
23362;SDS011;11853;48.080;11.960;2023-05-10T06:38:29;1.45;;;0.82;;
23362;SDS011;11853;48.080;11.960;2023-05-10T06:40:55;1.45;;;0.77;;
23362;SDS011;11853;48.080;11.960;2023-05-10T06:43:20;1.15;;;0.93;;
23362;SDS011;11853;48.080;11.960;2023-05-10T06:45:47;3.50;;;1.08;;
23362;SDS011;11853;48.080;11.960;2023-05-10T06:48:13;1.55;;;0.88;;
23362;SDS011;11853;48.080;11.960;2023-05-10T06:50:39;2.95;;;1.33;;
23362;SDS011;11853;48.080;11.960;2023-05-10T06:53:04;1.63;;;1.02;;
23362;SDS011;11853;48.080;11.960;2023-05-10T06:55:30;0.88;;;0.80;;
23362;SDS011;11853;48.080;11.960;2023-05-10T06:57:56;2.83;;;1.10;;
23362;SDS011;11853;48.080;11.960;2023-05-10T07:00:22;1.65;;;1.30;;
23362;SDS011;11853;48.080;11.960;2023-05-10T07:02:48;1.35;;;1.23;;
23362;SDS011;11853;48.080;11.960;2023-05-10T07:05:13;2.03;;;1.35;;
23362;SDS011;11853;48.080;11.960;2023-05-10T07:07:40;1.58;;;0.80;;
23362;SDS011;11853;48.080;11.960;2023-05-10T07:10:06;1.08;;;0.98;;
23362;SDS011;11853;48.080;11.960;2023-05-10T07:12:32;1.10;;;0.90;;
23362;SDS011;11853;48.080;11.960;2023-05-10T07:14:58;1.15;;;1.05;;
23362;SDS011;11853;48.080;11.960;2023-05-10T07:17:24;3.38;;;1.30;;
23362;SDS011;11853;48.080;11.960;2023-05-10T07:19:50;3.28;;;1.23;;
23362;SDS011;11853;48.080;11.960;2023-05-10T07:22:16;1.85;;;1.42;;
23362;SDS011;11853;48.080;11.960;2023-05-10T07:24:42;1.50;;;1.40;;
23362;SDS011;11853;48.080;11.960;2023-05-10T07:27:08;1.17;;;1.10;;
23362;SDS011;11853;48.080;11.960;2023-05-10T07:29:34;1.83;;;1.17;;
23362;SDS011;11853;48.080;11.960;2023-05-10T07:32:01;1.23;;;1.20;;
23362;SDS011;11853;48.080;11.960;2023-05-10T07:34:26;1.52;;;1.30;;
23362;SDS011;11853;48.080;11.960;2023-05-10T07:36:53;2.35;;;1.30;;
23362;SDS011;11853;48.080;11.960;2023-05-10T07:39:19;1.40;;;1.23;;
23362;SDS011;11853;48.080;11.960;2023-05-10T07:41:48;1.38;;;1.23;;
23362;SDS011;11853;48.080;11.960;2023-05-10T07:44:13;2.42;;;1.30;;
23362;SDS011;11853;48.080;11.960;2023-05-10T07:46:39;1.27;;;1.17;;
23362;SDS011;11853;48.080;11.960;2023-05-10T07:49:05;2.55;;;1.10;;
23362;SDS011;11853;48.080;11.960;2023-05-10T07:51:31;1.27;;;1.17;;
23362;SDS011;11853;48.080;11.960;2023-05-10T07:53:57;1.38;;;1.27;;
23362;SDS011;11853;48.080;11.960;2023-05-10T07:56:26;1.40;;;1.30;;
23362;SDS011;11853;48.080;11.960;2023-05-10T07:59:00;1.20;;;1.10;;
23362;SDS011;11853;48.080;11.960;2023-05-10T08:01:29;1.05;;;1.02;;
23362;SDS011;11853;48.080;11.960;2023-05-10T08:03:57;0.98;;;0.98;;
23362;SDS011;11853;48.080;11.960;2023-05-10T08:06:23;1.42;;;1.33;;
23362;SDS011;11853;48.080;11.960;2023-05-10T08:08:50;2.08;;;1.50;;
23362;SDS011;11853;48.080;11.960;2023-05-10T08:11:18;2.42;;;1.63;;
23362;SDS011;11853;48.080;11.960;2023-05-10T08:13:48;1.45;;;1.33;;
23362;SDS011;11853;48.080;11.960;2023-05-10T08:16:15;2.10;;;1.40;;
23362;SDS011;11853;48.080;11.960;2023-05-10T08:18:42;3.13;;;1.33;;
23362;SDS011;11853;48.080;11.960;2023-05-10T08:21:09;1.52;;;1.42;;
23362;SDS011;11853;48.080;11.960;2023-05-10T08:23:36;1.50;;;1.40;;
23362;SDS011;11853;48.080;11.960;2023-05-10T08:26:02;3.13;;;1.30;;
23362;SDS011;11853;48.080;11.960;2023-05-10T08:28:28;1.73;;;1.20;;
23362;SDS011;11853;48.080;11.960;2023-05-10T08:30:54;1.30;;;1.20;;
23362;SDS011;11853;48.080;11.960;2023-05-10T08:33:19;1.50;;;1.25;;
23362;SDS011;11853;48.080;11.960;2023-05-10T08:35:45;3.08;;;2.72;;
23362;SDS011;11853;48.080;11.960;2023-05-10T08:38:11;3.33;;;2.35;;
23362;SDS011;11853;48.080;11.960;2023-05-10T08:40:38;1.88;;;1.48;;
23362;SDS011;11853;48.080;11.960;2023-05-10T08:43:09;2.25;;;1.23;;
23362;SDS011;11853;48.080;11.960;2023-05-10T08:45:40;2.05;;;0.95;;
23362;SDS011;11853;48.080;11.960;2023-05-10T08:48:10;2.17;;;0.90;;
23362;SDS011;11853;48.080;11.960;2023-05-10T08:50:38;2.60;;;1.38;;
23362;SDS011;11853;48.080;11.960;2023-05-10T08:53:06;2.05;;;1.17;;
23362;SDS011;11853;48.080;11.960;2023-05-10T08:55:35;3.53;;;1.10;;
23362;SDS011;11853;48.080;11.960;2023-05-10T08:58:03;1.25;;;1.10;;
23362;SDS011;11853;48.080;11.960;2023-05-10T09:00:30;0.90;;;0.90;;
23362;SDS011;11853;48.080;11.960;2023-05-10T09:02:59;1.10;;;1.00;;
23362;SDS011;11853;48.080;11.960;2023-05-10T09:05:25;2.30;;;0.93;;
23362;SDS011;11853;48.080;11.960;2023-05-10T09:07:52;1.55;;;0.80;;
23362;SDS011;11853;48.080;11.960;2023-05-10T09:10:18;1.00;;;1.00;;
23362;SDS011;11853;48.080;11.960;2023-05-10T09:12:44;2.60;;;0.90;;
23362;SDS011;11853;48.080;11.960;2023-05-10T09:15:11;1.70;;;0.98;;
23362;SDS011;11853;48.080;11.960;2023-05-10T09:17:39;1.27;;;0.82;;
23362;SDS011;11853;48.080;11.960;2023-05-10T09:20:06;1.20;;;0.80;;
23362;SDS011;11853;48.080;11.960;2023-05-10T09:22:32;0.70;;;0.70;;
23362;SDS011;11853;48.080;11.960;2023-05-10T09:27:36;1.10;;;0.90;;
23362;SDS011;11853;48.080;11.960;2023-05-10T09:30:03;1.38;;;0.75;;
23362;SDS011;11853;48.080;11.960;2023-05-10T09:35:13;0.82;;;0.63;;
23362;SDS011;11853;48.080;11.960;2023-05-10T09:37:40;0.85;;;0.82;;
23362;SDS011;11853;48.080;11.960;2023-05-10T09:40:08;1.33;;;0.88;;
23362;SDS011;11853;48.080;11.960;2023-05-10T09:42:37;1.33;;;1.23;;
23362;SDS011;11853;48.080;11.960;2023-05-10T09:45:04;3.17;;;0.73;;
23362;SDS011;11853;48.080;11.960;2023-05-10T09:47:35;1.33;;;0.63;;
23362;SDS011;11853;48.080;11.960;2023-05-10T09:52:29;0.75;;;0.60;;
23362;SDS011;11853;48.080;11.960;2023-05-10T09:55:13;1.67;;;0.70;;
23362;SDS011;11853;48.080;11.960;2023-05-10T09:57:40;1.45;;;0.88;;
23362;SDS011;11853;48.080;11.960;2023-05-10T10:00:06;1.50;;;0.90;;
23362;SDS011;11853;48.080;11.960;2023-05-10T10:02:35;2.47;;;0.82;;
23362;SDS011;11853;48.080;11.960;2023-05-10T10:05:01;2.13;;;0.75;;
23362;SDS011;11853;48.080;11.960;2023-05-10T10:07:31;1.20;;;1.10;;
23362;SDS011;11853;48.080;11.960;2023-05-10T10:09:57;0.85;;;0.82;;
23362;SDS011;11853;48.080;11.960;2023-05-10T10:12:24;1.02;;;0.95;;
23362;SDS011;11853;48.080;11.960;2023-05-10T10:14:50;1.58;;;0.85;;
23362;SDS011;11853;48.080;11.960;2023-05-10T10:17:17;1.45;;;1.33;;
23362;SDS011;11853;48.080;11.960;2023-05-10T10:19:45;2.20;;;1.20;;
23362;SDS011;11853;48.080;11.960;2023-05-10T10:22:10;0.75;;;0.75;;
23362;SDS011;11853;48.080;11.960;2023-05-10T10:24:37;2.53;;;0.65;;
23362;SDS011;11853;48.080;11.960;2023-05-10T10:27:13;0.65;;;0.65;;
23362;SDS011;11853;48.080;11.960;2023-05-10T10:30:02;2.05;;;1.10;;
23362;SDS011;11853;48.080;11.960;2023-05-10T10:35:22;1.10;;;0.90;;
23362;SDS011;11853;48.080;11.960;2023-05-10T10:37:49;0.60;;;0.60;;
23362;SDS011;11853;48.080;11.960;2023-05-10T10:40:29;0.82;;;0.77;;
23362;SDS011;11853;48.080;11.960;2023-05-10T10:42:55;0.50;;;0.50;;
23362;SDS011;11853;48.080;11.960;2023-05-10T10:45:22;0.85;;;0.65;;
23362;SDS011;11853;48.080;11.960;2023-05-10T10:47:49;1.58;;;0.70;;
23362;SDS011;11853;48.080;11.960;2023-05-10T10:50:44;0.70;;;0.60;;
23362;SDS011;11853;48.080;11.960;2023-05-10T10:53:11;2.05;;;0.93;;
23362;SDS011;11853;48.080;11.960;2023-05-10T10:55:47;0.73;;;0.73;;
23362;SDS011;11853;48.080;11.960;2023-05-10T10:58:29;0.70;;;0.70;;
23362;SDS011;11853;48.080;11.960;2023-05-10T11:01:12;1.48;;;1.10;;
23362;SDS011;11853;48.080;11.960;2023-05-10T11:03:40;1.52;;;0.80;;
23362;SDS011;11853;48.080;11.960;2023-05-10T11:06:06;0.63;;;0.57;;
23362;SDS011;11853;48.080;11.960;2023-05-10T11:08:34;1.45;;;0.85;;
23362;SDS011;11853;48.080;11.960;2023-05-10T11:11:10;0.93;;;0.73;;
23362;SDS011;11853;48.080;11.960;2023-05-10T11:16:13;1.20;;;1.10;;
23362;SDS011;11853;48.080;11.960;2023-05-10T11:18:40;6.50;;;2.57;;
23362;SDS011;11853;48.080;11.960;2023-05-10T11:21:50;3.70;;;2.20;;
23362;SDS011;11853;48.080;11.960;2023-05-10T11:24:28;1.37;;;1.27;;
23362;SDS011;11853;48.080;11.960;2023-05-10T11:26:54;1.70;;;1.13;;
23362;SDS011;11853;48.080;11.960;2023-05-10T11:29:20;1.95;;;0.82;;
23362;SDS011;11853;48.080;11.960;2023-05-10T11:31:46;1.90;;;1.02;;
23362;SDS011;11853;48.080;11.960;2023-05-10T11:34:26;0.90;;;0.90;;
23362;SDS011;11853;48.080;11.960;2023-05-10T11:36:55;9.20;;;4.53;;
23362;SDS011;11853;48.080;11.960;2023-05-10T11:39:21;3.92;;;2.67;;
23362;SDS011;11853;48.080;11.960;2023-05-10T11:41:51;7.20;;;3.85;;
23362;SDS011;11853;48.080;11.960;2023-05-10T11:44:17;6.20;;;3.00;;
23362;SDS011;11853;48.080;11.960;2023-05-10T11:46:43;7.18;;;4.20;;
23362;SDS011;11853;48.080;11.960;2023-05-10T11:49:09;13.30;;;6.93;;
23362;SDS011;11853;48.080;11.960;2023-05-10T11:51:36;9.05;;;5.10;;
23362;SDS011;11853;48.080;11.960;2023-05-10T11:54:05;5.40;;;3.13;;
23362;SDS011;11853;48.080;11.960;2023-05-10T11:56:33;8.00;;;2.47;;
23362;SDS011;11853;48.080;11.960;2023-05-10T11:58:59;1.77;;;1.67;;
23362;SDS011;11853;48.080;11.960;2023-05-10T12:01:27;2.70;;;2.50;;
23362;SDS011;11853;48.080;11.960;2023-05-10T12:03:54;1.60;;;1.50;;
23362;SDS011;11853;48.080;11.960;2023-05-10T12:06:25;2.67;;;1.60;;
23362;SDS011;11853;48.080;11.960;2023-05-10T12:08:53;1.80;;;1.70;;
23362;SDS011;11853;48.080;11.960;2023-05-10T12:11:19;1.95;;;1.75;;
23362;SDS011;11853;48.080;11.960;2023-05-10T12:13:46;1.85;;;1.75;;
23362;SDS011;11853;48.080;11.960;2023-05-10T12:16:22;1.50;;;1.40;;
23362;SDS011;11853;48.080;11.960;2023-05-10T12:18:50;2.20;;;2.00;;
23362;SDS011;11853;48.080;11.960;2023-05-10T12:21:22;2.25;;;1.73;;
23362;SDS011;11853;48.080;11.960;2023-05-10T12:23:49;2.00;;;1.90;;
23362;SDS011;11853;48.080;11.960;2023-05-10T12:26:16;3.25;;;1.65;;
23362;SDS011;11853;48.080;11.960;2023-05-10T12:28:42;2.35;;;1.90;;
23362;SDS011;11853;48.080;11.960;2023-05-10T12:31:08;2.30;;;1.73;;
23362;SDS011;11853;48.080;11.960;2023-05-10T12:33:41;1.60;;;0.80;;
23362;SDS011;11853;48.080;11.960;2023-05-10T12:36:09;1.00;;;1.00;;
23362;SDS011;11853;48.080;11.960;2023-05-10T12:38:36;2.05;;;1.70;;
23362;SDS011;11853;48.080;11.960;2023-05-10T12:41:07;1.83;;;1.35;;
23362;SDS011;11853;48.080;11.960;2023-05-10T12:43:35;3.47;;;2.38;;
23362;SDS011;11853;48.080;11.960;2023-05-10T12:46:04;3.10;;;0.98;;
23362;SDS011;11853;48.080;11.960;2023-05-10T12:48:42;3.00;;;2.67;;
23362;SDS011;11853;48.080;11.960;2023-05-10T12:51:09;2.95;;;2.65;;
23362;SDS011;11853;48.080;11.960;2023-05-10T12:53:40;4.43;;;2.58;;
23362;SDS011;11853;48.080;11.960;2023-05-10T12:56:07;2.30;;;1.10;;
23362;SDS011;11853;48.080;11.960;2023-05-10T12:58:32;3.60;;;0.95;;
23362;SDS011;11853;48.080;11.960;2023-05-10T13:00:59;0.93;;;0.70;;
23362;SDS011;11853;48.080;11.960;2023-05-10T13:03:25;1.05;;;0.77;;
23362;SDS011;11853;48.080;11.960;2023-05-10T13:05:50;2.92;;;1.00;;
23362;SDS011;11853;48.080;11.960;2023-05-10T13:08:16;1.67;;;1.00;;
23362;SDS011;11853;48.080;11.960;2023-05-10T13:10:42;0.55;;;0.55;;
23362;SDS011;11853;48.080;11.960;2023-05-10T13:13:08;2.45;;;0.93;;
23362;SDS011;11853;48.080;11.960;2023-05-10T13:15:34;2.33;;;1.00;;
23362;SDS011;11853;48.080;11.960;2023-05-10T13:18:00;1.00;;;0.90;;
23362;SDS011;11853;48.080;11.960;2023-05-10T13:20:26;1.55;;;1.42;;
23362;SDS011;11853;48.080;11.960;2023-05-10T13:22:52;6.20;;;1.27;;
23362;SDS011;11853;48.080;11.960;2023-05-10T13:25:18;1.38;;;1.15;;
23362;SDS011;11853;48.080;11.960;2023-05-10T13:27:44;1.17;;;1.08;;
23362;SDS011;11853;48.080;11.960;2023-05-10T13:30:10;1.30;;;1.20;;
23362;SDS011;11853;48.080;11.960;2023-05-10T13:32:37;1.67;;;1.17;;
23362;SDS011;11853;48.080;11.960;2023-05-10T13:35:03;1.40;;;1.30;;
23362;SDS011;11853;48.080;11.960;2023-05-10T13:37:30;3.22;;;1.35;;
23362;SDS011;11853;48.080;11.960;2023-05-10T13:39:56;1.40;;;1.30;;
23362;SDS011;11853;48.080;11.960;2023-05-10T13:42:22;1.20;;;1.00;;
23362;SDS011;11853;48.080;11.960;2023-05-10T13:44:49;1.15;;;1.15;;
23362;SDS011;11853;48.080;11.960;2023-05-10T13:47:15;1.20;;;1.10;;
23362;SDS011;11853;48.080;11.960;2023-05-10T13:49:41;3.75;;;1.17;;
23362;SDS011;11853;48.080;11.960;2023-05-10T13:52:07;1.75;;;1.45;;
23362;SDS011;11853;48.080;11.960;2023-05-10T13:54:35;1.10;;;1.00;;
23362;SDS011;11853;48.080;11.960;2023-05-10T13:57:02;2.80;;;1.45;;
23362;SDS011;11853;48.080;11.960;2023-05-10T13:59:28;1.23;;;1.08;;
23362;SDS011;11853;48.080;11.960;2023-05-10T14:01:54;1.45;;;1.20;;
23362;SDS011;11853;48.080;11.960;2023-05-10T14:04:20;1.40;;;1.30;;
23362;SDS011;11853;48.080;11.960;2023-05-10T14:06:46;2.10;;;1.05;;
23362;SDS011;11853;48.080;11.960;2023-05-10T14:09:12;1.65;;;1.15;;
23362;SDS011;11853;48.080;11.960;2023-05-10T14:11:38;2.25;;;1.20;;
23362;SDS011;11853;48.080;11.960;2023-05-10T14:14:08;1.50;;;1.40;;
23362;SDS011;11853;48.080;11.960;2023-05-10T14:16:34;1.98;;;1.88;;
23362;SDS011;11853;48.080;11.960;2023-05-10T14:19:00;2.17;;;1.85;;
23362;SDS011;11853;48.080;11.960;2023-05-10T14:21:27;2.17;;;1.50;;
23362;SDS011;11853;48.080;11.960;2023-05-10T14:23:55;2.05;;;1.30;;
23362;SDS011;11853;48.080;11.960;2023-05-10T14:26:21;1.42;;;1.30;;
23362;SDS011;11853;48.080;11.960;2023-05-10T14:28:47;2.03;;;1.38;;
23362;SDS011;11853;48.080;11.960;2023-05-10T14:31:13;2.90;;;1.35;;
23362;SDS011;11853;48.080;11.960;2023-05-10T14:33:41;1.75;;;1.23;;
23362;SDS011;11853;48.080;11.960;2023-05-10T14:36:08;1.52;;;1.17;;
23362;SDS011;11853;48.080;11.960;2023-05-10T14:38:33;1.08;;;0.98;;
23362;SDS011;11853;48.080;11.960;2023-05-10T14:40:59;1.70;;;0.95;;
23362;SDS011;11853;48.080;11.960;2023-05-10T14:43:25;1.98;;;0.80;;
23362;SDS011;11853;48.080;11.960;2023-05-10T14:45:52;0.95;;;0.95;;
23362;SDS011;11853;48.080;11.960;2023-05-10T14:48:18;0.82;;;0.82;;
23362;SDS011;11853;48.080;11.960;2023-05-10T14:50:44;1.67;;;1.00;;
23362;SDS011;11853;48.080;11.960;2023-05-10T14:53:11;1.80;;;0.93;;
23362;SDS011;11853;48.080;11.960;2023-05-10T14:55:37;0.80;;;0.80;;
23362;SDS011;11853;48.080;11.960;2023-05-10T14:58:04;2.10;;;1.17;;
23362;SDS011;11853;48.080;11.960;2023-05-10T15:00:30;2.78;;;1.00;;
23362;SDS011;11853;48.080;11.960;2023-05-10T15:02:56;3.08;;;0.93;;
23362;SDS011;11853;48.080;11.960;2023-05-10T15:05:22;1.33;;;0.80;;